Time;durP1;ratioP1;P1;durP2;ratioP2;P2;SDS_P1;SDS_P2;PMS_P1;PMS_P2;Temp;Humidity;BMP_temperature;BMP_pressure;BME280_temperature;BME280_humidity;BME280_pressure;Samples;Min_cycle;Max_cycle;Signal;HPM_P1;HPM_P2
2023/08/30 06:38:49;;;;;;;13.82;9.65;;;;;;;12.17;100.00;100622.50;6185601;22;1993784;-82
2023/08/30 06:41:16;;;;;;;13.82;9.63;;;;;;;12.19;100.00;100628.13;6250229;22;20020;-82
2023/08/30 06:43:42;;;;;;;13.65;9.25;;;;;;;12.17;100.00;100621.75;6249941;22;20019;-80
2023/08/30 06:46:09;;;;;;;14.40;9.38;;;;;;;12.19;100.00;100636.13;6249762;22;20024;-81
2023/08/30 06:48:35;;;;;;;20.90;10.00;;;;;;;12.18;100.00;100625.91;6250550;22;20157;-81
2023/08/30 06:51:03;;;;;;;13.23;8.88;;;;;;;12.15;100.00;100622.22;6250839;22;20019;-81
2023/08/30 06:53:29;;;;;;;11.88;9.00;;;;;;;12.11;100.00;100623.56;6249811;22;20020;-81
2023/08/30 06:56:00;;;;;;;12.20;9.25;;;;;;;12.12;100.00;100628.44;6249965;22;20083;-80
2023/08/30 06:58:27;;;;;;;16.40;9.18;;;;;;;12.14;100.00;100620.00;6249859;22;20067;-80
2023/08/30 07:00:53;;;;;;;15.90;9.88;;;;;;;12.13;100.00;100616.59;6250785;22;20099;-80
2023/08/30 07:03:20;;;;;;;12.32;9.45;;;;;;;12.11;100.00;100607.56;6249950;22;20469;-80
2023/08/30 07:05:49;;;;;;;11.25;9.38;;;;;;;12.12;100.00;100598.34;6252950;22;20421;-80
2023/08/30 07:08:16;;;;;;;12.50;8.77;;;;;;;12.12;100.00;100599.09;6251618;22;20079;-80
2023/08/30 07:10:43;;;;;;;10.80;8.90;;;;;;;12.13;100.00;100597.91;6250112;22;20017;-80
2023/08/30 07:13:12;;;;;;;15.23;9.00;;;;;;;12.17;100.00;100595.06;6250347;22;20464;-80
2023/08/30 07:15:40;;;;;;;11.93;9.68;;;;;;;12.18;100.00;100594.63;6250164;22;20532;-79
2023/08/30 07:18:07;;;;;;;11.48;9.27;;;;;;;12.19;100.00;100585.44;6250017;22;20458;-77
2023/08/30 07:20:36;;;;;;;10.98;8.90;;;;;;;12.16;100.00;100586.31;6250279;22;20091;-77
2023/08/30 07:23:03;;;;;;;11.90;9.10;;;;;;;12.18;100.00;100589.28;6223473;22;20024;-78
2023/08/30 07:25:33;;;;;;;17.40;10.00;;;;;;;12.18;100.00;100591.94;6249145;22;20446;-77
2023/08/30 07:28:00;;;;;;;17.60;10.50;;;;;;;12.21;100.00;100593.72;6222897;22;20020;-78
2023/08/30 07:30:26;;;;;;;22.95;10.93;;;;;;;12.25;100.00;100585.53;6249620;22;20024;-78
2023/08/30 07:32:54;;;;;;;16.85;9.88;;;;;;;12.26;100.00;100581.69;6223651;22;20135;-78
2023/08/30 07:35:20;;;;;;;19.00;9.82;;;;;;;12.28;100.00;100581.97;6249604;22;20362;-77
2023/08/30 07:37:47;;;;;;;11.25;9.30;;;;;;;12.29;100.00;100578.09;6250079;22;20044;-77
2023/08/30 07:40:14;;;;;;;10.35;9.25;;;;;;;12.32;100.00;100567.25;6222336;22;20511;-77
2023/08/30 07:42:40;;;;;;;10.82;8.75;;;;;;;12.35;100.00;100569.03;6249854;22;20427;-77
2023/08/30 07:45:07;;;;;;;13.45;9.30;;;;;;;12.38;100.00;100567.38;6249803;22;20025;-77
2023/08/30 07:47:34;;;;;;;12.25;8.38;;;;;;;12.38;100.00;100562.03;6249896;22;20443;-78
2023/08/30 07:50:00;;;;;;;11.77;8.38;;;;;;;12.42;100.00;100567.91;6250252;22;20016;-78
2023/08/30 07:52:27;;;;;;;14.07;8.80;;;;;;;12.45;100.00;100559.00;6249370;22;20442;-77
2023/08/30 07:55:11;;;;;;;10.40;8.05;;;;;;;12.44;100.00;100554.13;6249462;22;20065;-78
2023/08/30 07:57:37;;;;;;;13.88;8.45;;;;;;;12.47;100.00;100555.88;6249825;22;20017;-79
2023/08/30 08:00:05;;;;;;;8.63;7.57;;;;;;;12.48;100.00;100549.34;6250043;22;20016;-79
2023/08/30 08:02:37;;;;;;;8.90;7.82;;;;;;;12.50;100.00;100547.69;6249881;22;20020;-79
2023/08/30 08:05:04;;;;;;;10.73;7.72;;;;;;;12.53;100.00;100554.78;6249969;22;20027;-80
2023/08/30 08:07:30;;;;;;;9.07;7.82;;;;;;;12.54;100.00;100544.84;6249519;22;20488;-80
2023/08/30 08:09:57;;;;;;;8.30;7.50;;;;;;;12.57;100.00;100544.69;6249778;22;20023;-80
2023/08/30 08:12:26;;;;;;;7.85;7.15;;;;;;;12.58;100.00;100542.75;6249245;22;20016;-80
2023/08/30 08:14:52;;;;;;;8.32;7.47;;;;;;;12.66;100.00;100543.88;6249787;22;20028;-79
2023/08/30 08:17:19;;;;;;;8.30;7.53;;;;;;;12.75;100.00;100541.13;6249563;22;20017;-79
2023/08/30 08:19:45;;;;;;;8.25;6.75;;;;;;;12.85;100.00;100533.75;6223077;22;20074;-79
2023/08/30 08:22:12;;;;;;;8.70;7.00;;;;;;;12.96;100.00;100529.34;6249801;22;20013;-79
2023/08/30 08:24:38;;;;;;;8.60;7.10;;;;;;;13.05;100.00;100519.75;6249198;22;20025;-79
2023/08/30 08:27:05;;;;;;;6.82;6.22;;;;;;;13.09;100.00;100523.00;6250104;22;20021;-78
2023/08/30 08:29:32;;;;;;;6.85;6.25;;;;;;;13.11;100.00;100520.59;6222553;22;20020;-79
2023/08/30 08:31:59;;;;;;;7.22;6.53;;;;;;;13.13;100.00;100526.94;6250098;22;20063;-79
2023/08/30 08:34:26;;;;;;;6.93;6.28;;;;;;;13.10;100.00;100525.19;6249501;22;20017;-79
2023/08/30 08:36:52;;;;;;;6.50;5.90;;;;;;;13.10;100.00;100527.13;6249697;22;20110;-79
2023/08/30 08:39:19;;;;;;;6.80;6.20;;;;;;;13.14;100.00;100522.34;6222073;22;20051;-79
2023/08/30 08:41:46;;;;;;;7.43;6.10;;;;;;;13.19;100.00;100524.41;6249957;22;20085;-79
2023/08/30 08:44:13;;;;;;;7.22;6.53;;;;;;;13.20;100.00;100523.19;6249418;22;20469;-79
2023/08/30 08:46:40;;;;;;;7.20;6.50;;;;;;;13.23;100.00;100524.94;6249636;22;20027;-79
2023/08/30 08:49:15;;;;;;;7.07;5.85;;;;;;;13.22;100.00;100515.44;6221848;22;20095;-80
2023/08/30 08:51:43;;;;;;;7.80;6.20;;;;;;;13.21;100.00;100521.97;6249089;22;20051;-78
2023/08/30 08:54:11;;;;;;;7.20;6.50;;;;;;;13.21;100.00;100519.31;6249507;22;20071;-78
2023/08/30 08:56:39;;;;;;;7.18;6.47;;;;;;;13.24;100.00;100521.78;6249597;22;20088;-80
2023/08/30 08:59:07;;;;;;;7.35;6.00;;;;;;;13.24;100.00;100515.72;6249625;22;20019;-80
2023/08/30 09:01:39;;;;;;;6.53;5.70;;;;;;;13.23;100.00;100511.56;6249627;22;20019;-79
2023/08/30 09:04:07;;;;;;;;;;;;;;;13.22;100.00;100507.41;6250456;22;20041;-79
2023/08/30 09:06:35;;;;;;;6.10;5.55;;;;;;;13.25;100.00;100509.16;6221883;22;20345;-76
2023/08/30 09:09:06;;;;;;;8.93;6.57;;;;;;;13.24;100.00;100507.69;6250124;22;20380;-76
2023/08/30 09:11:33;;;;;;;6.53;5.93;;;;;;;13.26;100.00;100506.03;6249766;22;20473;-77
2023/08/30 09:14:02;;;;;;;7.07;6.35;;;;;;;13.27;100.00;100509.44;6249997;22;20055;-76
2023/08/30 09:16:29;;;;;;;6.70;6.03;;;;;;;13.30;100.00;100505.84;6249014;22;20096;-78
2023/08/30 09:19:03;;;;;;;6.63;5.93;;;;;;;13.32;100.00;100504.19;6249983;22;20075;-75
2023/08/30 09:21:36;;;;;;;6.82;6.20;;;;;;;13.34;100.00;100503.72;6221636;22;20435;-75
2023/08/30 09:24:05;;;;;;;7.43;6.28;;;;;;;13.37;100.00;100497.44;6250029;22;20027;-75
2023/08/30 09:26:34;;;;;;;6.50;5.90;;;;;;;13.42;100.00;100491.44;6222308;22;20020;-76
2023/08/30 09:29:05;;;;;;;7.15;5.95;;;;;;;13.49;100.00;100493.75;6250149;22;20091;-75
2023/08/30 09:31:36;;;;;;;6.45;5.85;;;;;;;13.51;100.00;100494.00;6222447;22;20417;-75
2023/08/30 09:34:04;;;;;;;5.80;5.35;;;;;;;13.55;100.00;100499.91;6250042;22;20366;-75
2023/08/30 09:36:35;;;;;;;7.10;6.10;;;;;;;13.59;100.00;100499.72;6248726;22;20016;-76
2023/08/30 09:39:07;;;;;;;6.17;5.67;;;;;;;13.63;100.00;100495.63;6249327;22;20032;-76
2023/08/30 09:41:34;;;;;;;6.30;5.55;;;;;;;13.70;100.00;100486.47;6249490;22;20455;-76
2023/08/30 09:44:07;;;;;;;5.78;5.28;;;;;;;13.79;100.00;100482.94;6249579;22;20016;-76
2023/08/30 09:46:51;;;;;;;6.43;5.85;;;;;;;13.89;100.00;100481.63;6249075;22;20465;-76
2023/08/30 09:49:21;;;;;;;7.43;6.00;;;;;;;13.98;100.00;100481.50;6249102;22;20375;-76
2023/08/30 09:51:49;;;;;;;6.45;5.88;;;;;;;14.06;100.00;100476.44;6249672;22;20017;-76
2023/08/30 09:54:18;;;;;;;6.70;6.10;;;;;;;14.07;100.00;100477.91;6249640;22;20083;-77
2023/08/30 09:57:05;;;;;;;6.70;6.13;;;;;;;14.08;100.00;100472.09;6250174;22;20092;-77
2023/08/30 09:59:32;;;;;;;7.45;6.75;;;;;;;14.12;100.00;100478.00;6250434;22;20028;-76
2023/08/30 10:02:04;;;;;;;7.20;6.60;;;;;;;14.17;100.00;100480.00;6224666;22;20311;-76
2023/08/30 10:04:31;;;;;;;7.75;6.90;;;;;;;14.25;100.00;100474.97;6250387;22;20017;-78
2023/08/30 10:06:59;;;;;;;10.30;6.38;;;;;;;14.28;100.00;100469.41;6251405;22;20019;-76
2023/08/30 10:09:25;;;;;;;7.72;6.43;;;;;;;14.25;100.00;100475.72;6223377;22;20067;-78
2023/08/30 10:11:52;;;;;;;7.35;6.75;;;;;;;14.27;100.00;100475.97;6250687;22;20067;-78
2023/08/30 10:14:19;;;;;;;10.02;7.32;;;;;;;14.33;100.00;100476.78;6250044;22;20469;-77
2023/08/30 10:16:47;;;;;;;8.55;7.80;;;;;;;14.37;100.00;100476.56;6250765;22;20012;-78
2023/08/30 10:19:15;;;;;;;7.97;7.38;;;;;;;14.42;100.00;100481.25;6250014;22;20017;-78
2023/08/30 10:21:44;;;;;;;8.32;7.50;;;;;;;14.48;100.00;100478.63;6250390;22;20379;-76
2023/08/30 10:24:19;;;;;;;8.50;7.65;;;;;;;14.57;100.00;100486.53;6250292;22;20044;-78
2023/08/30 10:27:04;;;;;;;8.45;7.75;;;;;;;14.71;100.00;100480.31;6250944;22;20486;-78
2023/08/30 10:29:33;;;;;;;8.38;7.68;;;;;;;15.36;100.00;100475.19;6250391;22;20092;-77
2023/08/30 10:32:07;;;;;;;8.05;7.45;;;;;;;15.74;100.00;100482.03;6223907;22;20534;-78
2023/08/30 10:34:35;;;;;;;8.15;7.45;;;;;;;16.05;100.00;100478.47;6250068;22;20016;-78
2023/08/30 10:37:07;;;;;;;8.38;7.40;;;;;;;16.29;100.00;100486.88;6252268;22;20012;-78
2023/08/30 10:39:41;;;;;;;7.05;6.55;;;;;;;16.21;100.00;100491.22;6224857;22;20036;-79
2023/08/30 10:42:12;;;;;;;7.25;6.65;;;;;;;16.47;100.00;100491.03;6252131;22;20435;-79
2023/08/30 10:45:04;;;;;;;7.55;6.95;;;;;;;16.78;100.00;100492.09;6252194;22;20413;-79
2023/08/30 10:47:37;;;;;;;5.80;5.18;;;;;;;16.95;100.00;100488.19;6251657;22;20554;-79
2023/08/30 10:50:11;;;;;;;5.40;4.97;;;;;;;17.10;100.00;100490.63;6251779;22;20473;-78
2023/08/30 10:52:38;;;;;;;5.30;4.88;;;;;;;17.18;99.29;100496.25;6251439;22;20312;-78
2023/08/30 10:55:14;;;;;;;4.90;4.50;;;;;;;17.33;97.34;100502.81;6251730;22;20020;-79
2023/08/30 10:57:43;;;;;;;4.85;4.55;;;;;;;17.48;95.41;100499.88;6252068;22;20017;-78
2023/08/30 11:00:18;;;;;;;6.32;4.15;;;;;;;17.79;93.47;100500.78;6251738;22;20016;-78
2023/08/30 11:02:47;;;;;;;3.97;3.67;;;;;;;18.00;92.24;100504.63;6250233;22;20059;-78
2023/08/30 11:05:20;;;;;;;6.10;4.15;;;;;;;18.29;90.08;100511.34;6250021;22;20008;-78
2023/08/30 11:07:49;;;;;;;4.95;3.30;;;;;;;18.15;85.95;100510.44;6250498;22;20099;-78
2023/08/30 11:10:16;;;;;;;4.15;2.85;;;;;;;17.94;83.08;100507.34;6249684;22;20048;-78
2023/08/30 11:12:44;;;;;;;3.88;2.80;;;;;;;17.81;83.05;100514.50;6249147;22;20012;-79
2023/08/30 11:15:13;;;;;;;7.30;2.58;;;;;;;17.67;81.86;100519.66;6249553;22;20032;-79
2023/08/30 11:17:42;;;;;;;6.18;2.67;;;;;;;17.62;84.08;100516.94;6249555;22;20025;-78
2023/08/30 11:20:19;;;;;;;3.08;2.70;;;;;;;17.60;82.88;100525.50;6250455;22;20043;-79
2023/08/30 11:22:48;;;;;;;2.58;2.35;;;;;;;17.44;82.37;100520.91;6250929;22;20019;-79
2023/08/30 11:25:16;;;;;;;6.43;2.72;;;;;;;17.31;82.76;100524.09;6250354;22;20447;-79
2023/08/30 11:27:43;;;;;;;6.13;2.60;;;;;;;17.30;82.80;100524.59;6250320;22;20045;-78
2023/08/30 11:30:11;;;;;;;5.88;2.75;;;;;;;17.32;84.16;100527.53;6250394;22;20438;-79
2023/08/30 11:32:39;;;;;;;4.28;2.53;;;;;;;17.43;82.70;100521.41;6249953;22;20023;-79
2023/08/30 11:35:07;;;;;;;4.50;2.67;;;;;;;17.38;83.24;100530.94;6250448;22;20027;-78
2023/08/30 11:37:34;;;;;;;6.82;2.58;;;;;;;17.28;83.07;100524.34;6250180;22;20013;-78
2023/08/30 11:40:05;;;;;;;3.95;2.40;;;;;;;17.28;84.53;100516.28;6250525;22;20063;-78
2023/08/30 11:42:32;;;;;;;6.13;2.88;;;;;;;17.65;84.77;100527.50;6223223;22;20017;-78
2023/08/30 11:44:59;;;;;;;5.40;3.30;;;;;;;17.86;84.29;100522.56;6250399;22;20023;-78
2023/08/30 11:47:26;;;;;;;4.00;2.60;;;;;;;17.90;82.59;100525.00;6249244;22;20487;-79
2023/08/30 11:49:56;;;;;;;5.22;2.53;;;;;;;18.27;83.26;100524.59;6250666;22;20462;-79
2023/08/30 11:52:24;;;;;;;8.00;2.97;;;;;;;18.42;79.12;100518.84;6249435;22;20012;-78
2023/08/30 11:54:52;;;;;;;4.93;2.88;;;;;;;18.31;78.14;100520.41;6250396;22;20020;-79
2023/08/30 11:57:19;;;;;;;5.90;3.13;;;;;;;18.05;78.19;100509.25;6249679;22;20024;-79
2023/08/30 11:59:47;;;;;;;10.75;3.08;;;;;;;17.95;81.87;100519.59;6250450;22;20016;-79
2023/08/30 12:02:16;;;;;;;10.25;2.78;;;;;;;18.07;80.37;100528.34;6249341;22;20091;-79
2023/08/30 12:04:45;;;;;;;5.47;3.30;;;;;;;18.04;78.71;100520.50;6250085;22;20336;-78
2023/08/30 12:07:26;;;;;;;7.07;2.72;;;;;;;18.10;78.09;100521.22;6249934;22;20518;-79
2023/08/30 12:10:04;;;;;;;4.75;3.38;;;;;;;18.21;79.15;100523.88;6250353;22;20016;-79
2023/08/30 12:12:31;;;;;;;6.00;2.45;;;;;;;18.34;76.58;100524.06;6249673;22;20020;-75
2023/08/30 12:14:58;;;;;;;7.35;2.08;;;;;;;18.35;76.67;100522.09;6249497;22;20016;-75
2023/08/30 12:17:24;;;;;;;6.00;2.38;;;;;;;18.36;77.39;100520.88;6249250;22;20339;-76
2023/08/30 12:19:58;;;;;;;4.07;2.33;;;;;;;18.51;74.13;100526.66;6250478;22;20089;-76
2023/08/30 12:22:38;;;;;;;8.35;2.60;;;;;;;18.78;73.10;100528.47;6249050;22;20019;-75
2023/08/30 12:25:18;;;;;;;8.65;2.10;;;;;;;19.01;71.92;100522.91;6250234;22;20114;-76
2023/08/30 12:27:46;;;;;;;7.65;2.42;;;;;;;18.83;70.39;100532.34;6250211;22;20017;-76
2023/08/30 12:30:14;;;;;;;11.65;2.88;;;;;;;18.59;68.95;100531.00;6249470;22;20071;-77
2023/08/30 12:32:41;;;;;;;4.40;2.10;;;;;;;18.33;69.80;100536.06;6249830;22;20013;-78
2023/08/30 12:35:08;;;;;;;6.35;2.08;;;;;;;18.28;67.76;100536.81;6249747;22;20020;-76
2023/08/30 12:37:34;;;;;;;6.00;1.88;;;;;;;18.32;65.55;100540.00;6249712;22;20450;-76
2023/08/30 12:40:03;;;;;;;4.25;1.80;;;;;;;18.45;64.32;100542.13;6249603;22;20013;-75
2023/08/30 12:42:29;;;;;;;10.55;2.63;;;;;;;18.72;64.69;100535.88;6249484;22;20017;-75
2023/08/30 12:44:56;;;;;;;8.20;1.98;;;;;;;18.87;63.44;100538.94;6249599;22;20016;-77
2023/08/30 12:47:23;;;;;;;4.50;2.00;;;;;;;18.98;62.04;100536.16;6249264;22;20071;-78
2023/08/30 12:49:49;;;;;;;7.32;2.60;;;;;;;19.05;62.69;100544.94;6250222;22;20013;-78
2023/08/30 12:52:16;;;;;;;6.70;2.15;;;;;;;19.01;60.60;100539.81;6249774;22;20012;-78
2023/08/30 12:54:42;;;;;;;4.35;1.80;;;;;;;18.95;59.43;100542.56;6249627;22;20020;-76
2023/08/30 12:57:09;;;;;;;3.80;1.88;;;;;;;18.93;58.02;100555.06;6249903;22;20092;-77
2023/08/30 12:59:36;;;;;;;4.78;2.10;;;;;;;18.77;58.55;100558.63;6249030;22;20023;-78
2023/08/30 13:02:03;;;;;;;5.22;1.85;;;;;;;18.80;59.77;100554.91;6223226;22;20071;-74
2023/08/30 13:04:30;;;;;;;5.13;1.80;;;;;;;19.01;59.54;100555.28;6222603;22;20148;-75
2023/08/30 13:06:56;;;;;;;5.43;1.70;;;;;;;19.06;59.68;100546.41;6249948;22;20021;-74
2023/08/30 13:09:23;;;;;;;5.13;1.98;;;;;;;19.07;60.38;100545.19;6249245;22;20012;-74
2023/08/30 13:11:49;;;;;;;6.00;1.90;;;;;;;18.91;60.97;100560.97;6249736;22;20120;-75
2023/08/30 13:14:16;;;;;;;5.55;2.05;;;;;;;18.80;60.05;100554.91;6248878;22;20047;-75
2023/08/30 13:16:43;;;;;;;3.03;2.00;;;;;;;18.68;62.46;100558.94;6249451;22;20013;-76
2023/08/30 13:19:09;;;;;;;11.13;2.50;;;;;;;18.53;61.25;100556.53;6249732;22;20032;-75
2023/08/30 13:21:36;;;;;;;8.90;2.60;;;;;;;18.50;61.17;100562.91;6249394;22;20443;-75
2023/08/30 13:24:07;;;;;;;7.30;2.10;;;;;;;18.41;61.15;100563.94;6249579;22;20024;-76
2023/08/30 13:26:34;;;;;;;7.28;2.38;;;;;;;18.49;64.18;100556.78;6222008;22;20079;-76
2023/08/30 13:29:02;;;;;;;6.43;2.00;;;;;;;18.46;64.16;100565.88;6249240;22;20554;-75
2023/08/30 13:31:28;;;;;;;6.60;2.20;;;;;;;18.36;63.45;100566.69;6248831;22;20067;-75
2023/08/30 13:33:55;;;;;;;6.57;2.40;;;;;;;18.30;63.85;100566.72;6249246;22;20016;-76
2023/08/30 13:36:22;;;;;;;4.88;2.25;;;;;;;18.29;63.61;100557.88;6248956;22;20020;-74
2023/08/30 13:38:48;;;;;;;4.25;1.80;;;;;;;18.27;64.55;100567.69;6249176;22;20095;-73
2023/08/30 13:41:15;;;;;;;5.25;2.20;;;;;;;18.33;65.90;100571.84;6249290;22;20013;-75
2023/08/30 13:43:42;;;;;;;4.15;2.00;;;;;;;18.38;65.70;100575.00;6248820;22;20058;-75
2023/08/30 13:46:08;;;;;;;7.43;2.40;;;;;;;18.42;67.21;100572.75;6222239;22;20056;-76
2023/08/30 13:48:35;;;;;;;5.65;2.03;;;;;;;18.46;68.24;100573.97;6249425;22;20012;-74
2023/08/30 13:51:02;;;;;;;3.83;2.08;;;;;;;18.60;67.57;100572.22;6249585;22;20016;-75
2023/08/30 13:53:28;;;;;;;5.00;2.17;;;;;;;18.61;67.09;100563.63;6248802;22;20021;-75
2023/08/30 13:55:55;;;;;;;11.02;2.95;;;;;;;18.63;66.71;100571.22;6248922;22;20016;-75
2023/08/30 13:58:21;;;;;;;6.45;2.30;;;;;;;18.60;67.69;100577.59;6248679;22;20092;-75
2023/08/30 14:00:48;;;;;;;6.10;2.13;;;;;;;18.53;67.44;100581.53;6249545;22;20477;-77
2023/08/30 14:03:15;;;;;;;6.90;2.40;;;;;;;18.38;69.26;100585.78;6248844;22;20017;-75
2023/08/30 14:05:42;;;;;;;5.03;2.28;;;;;;;18.28;68.48;100599.53;6249164;22;20012;-75
2023/08/30 14:08:08;;;;;;;5.05;1.88;;;;;;;18.04;69.55;100593.97;6249210;22;20013;-78
2023/08/30 14:10:35;;;;;;;9.07;2.13;;;;;;;17.82;69.91;100605.53;6248459;22;20417;-76
2023/08/30 14:13:02;;;;;;;6.63;2.00;;;;;;;17.58;70.51;100613.38;6249417;22;20024;-77
2023/08/30 14:15:28;;;;;;;4.03;1.83;;;;;;;17.35;71.56;100618.03;6248422;22;20071;-75
2023/08/30 14:17:55;;;;;;;3.70;1.60;;;;;;;17.12;73.80;100611.16;6249545;22;20013;-78
2023/08/30 14:20:22;;;;;;;5.20;1.70;;;;;;;16.93;75.36;100613.56;6248890;22;20087;-79
2023/08/30 14:22:48;;;;;;;6.75;2.17;;;;;;;16.89;78.40;100624.56;6249490;22;20021;-78
2023/08/30 14:25:15;;;;;;;2.42;1.63;;;;;;;16.80;79.46;100627.47;6248784;22;20020;-79
2023/08/30 14:27:41;;;;;;;12.52;1.80;;;;;;;16.77;79.87;100630.41;6249118;22;20016;-75
2023/08/30 14:30:08;;;;;;;5.00;1.70;;;;;;;16.67;80.18;100624.50;6248926;22;20013;-77
2023/08/30 14:32:35;;;;;;;2.15;1.70;;;;;;;16.58;84.35;100628.13;6249118;22;20410;-78
2023/08/30 14:35:03;;;;;;;2.92;1.70;;;;;;;16.59;83.20;100623.47;6249785;22;20012;-74
2023/08/30 14:37:30;;;;;;;1.85;1.40;;;;;;;16.52;83.29;100626.63;6221576;22;20027;-73
2023/08/30 14:39:57;;;;;;;4.93;1.83;;;;;;;16.45;84.54;100633.19;6248295;22;20024;-74
2023/08/30 14:42:23;;;;;;;5.38;2.00;;;;;;;16.36;85.59;100640.75;6248227;22;20104;-74
2023/08/30 14:44:50;;;;;;;3.53;1.80;;;;;;;16.33;87.52;100637.78;6248810;22;20013;-78
2023/08/30 14:47:18;;;;;;;2.22;1.83;;;;;;;16.28;89.39;100643.13;6222840;22;20368;-78
2023/08/30 14:49:45;;;;;;;5.10;2.50;;;;;;;16.30;90.75;100629.97;6250593;22;20016;-79
2023/08/30 14:52:13;;;;;;;6.13;2.30;;;;;;;16.39;91.36;100629.03;6250330;22;20092;-77
2023/08/30 14:54:40;;;;;;;5.82;2.13;;;;;;;16.50;91.07;100631.75;6249728;22;20370;-78
2023/08/30 14:57:07;;;;;;;7.40;2.10;;;;;;;16.60;91.35;100636.44;6250299;22;20442;-78
2023/08/30 14:59:33;;;;;;;3.85;2.13;;;;;;;16.76;90.88;100635.06;6249420;22;20019;-77
2023/08/30 15:02:00;;;;;;;5.75;2.35;;;;;;;16.84;91.18;100638.72;6223863;22;20017;-77
2023/08/30 15:04:27;;;;;;;3.67;1.73;;;;;;;16.86;90.32;100644.34;6249801;22;20092;-79
2023/08/30 15:06:53;;;;;;;6.93;2.28;;;;;;;16.83;88.34;100641.91;6250736;22;20028;-77
2023/08/30 15:09:20;;;;;;;6.10;2.22;;;;;;;16.85;88.89;100642.88;6246708;22;20469;-76
2023/08/30 15:11:47;;;;;;;4.60;2.17;;;;;;;16.89;88.86;100645.34;6249896;22;20020;-74
2023/08/30 15:14:13;;;;;;;5.90;2.72;;;;;;;16.92;88.45;100637.03;6249891;22;20016;-75
2023/08/30 15:16:40;;;;;;;4.93;2.28;;;;;;;16.96;88.61;100636.81;6249877;22;20092;-74
2023/08/30 15:19:07;;;;;;;12.77;2.97;;;;;;;16.93;88.96;100651.94;6250386;22;20021;-76
2023/08/30 15:21:34;;;;;;;5.03;1.98;;;;;;;16.81;89.46;100660.47;6223060;22;20021;-77
2023/08/30 15:24:01;;;;;;;5.75;1.92;;;;;;;16.61;88.62;100661.34;6249989;22;20079;-79
2023/08/30 15:26:28;;;;;;;3.78;1.50;;;;;;;16.41;85.99;100661.50;6223379;22;20525;-82
2023/08/30 15:28:54;;;;;;;4.00;1.60;;;;;;;16.21;88.62;100667.75;6250641;22;20016;-80
2023/08/30 15:31:21;;;;;;;3.30;1.60;;;;;;;16.18;89.38;100663.34;6249843;22;20517;-78
2023/08/30 15:33:47;;;;;;;4.18;1.55;;;;;;;16.30;91.25;100656.81;6223753;22;20359;-78
2023/08/30 15:36:14;;;;;;;3.28;1.70;;;;;;;16.41;92.09;100662.22;6250704;22;20328;-80
2023/08/30 15:38:44;;;;;;;1.73;1.48;;;;;;;16.50;91.71;100655.91;6222304;22;20377;-80
2023/08/30 15:41:12;;;;;;;5.00;1.92;;;;;;;16.58;92.55;100651.56;6250272;22;20021;-78
2023/08/30 15:43:39;;;;;;;2.95;1.33;;;;;;;16.56;91.10;100648.63;6250232;22;20043;-81
2023/08/30 15:46:06;;;;;;;2.00;1.52;;;;;;;16.52;93.30;100653.50;6250202;22;20017;-80
2023/08/30 15:48:34;;;;;;;5.07;1.80;;;;;;;16.55;93.07;100649.84;6249846;22;20024;-79
2023/08/30 15:51:01;;;;;;;3.28;1.40;;;;;;;16.50;93.24;100648.59;6250599;22;20096;-78
2023/08/30 15:53:27;;;;;;;3.53;1.40;;;;;;;16.54;93.66;100651.06;6221943;22;20071;-78
2023/08/30 15:55:54;;;;;;;2.40;1.40;;;;;;;16.57;94.28;100645.47;6223612;22;20013;-78
2023/08/30 15:58:21;;;;;;;5.82;1.90;;;;;;;16.59;93.78;100647.66;6249289;22;20040;-77
2023/08/30 16:00:48;;;;;;;4.63;1.52;;;;;;;16.53;93.70;100642.25;6250373;22;20027;-76
2023/08/30 16:03:16;;;;;;;4.53;1.45;;;;;;;16.48;91.66;100642.22;6249603;22;20095;-79
2023/08/30 16:05:43;;;;;;;3.75;1.38;;;;;;;16.45;91.77;100651.25;6250159;22;20016;-78
2023/08/30 16:08:11;;;;;;;5.43;1.20;;;;;;;16.40;90.22;100647.31;6222039;22;20031;-78
2023/08/30 16:10:38;;;;;;;2.95;1.30;;;;;;;16.39;90.37;100645.16;6222694;22;20487;-78
2023/08/30 16:13:04;;;;;;;2.97;1.42;;;;;;;16.39;91.77;100645.16;6250328;22;20019;-78
2023/08/30 16:15:31;;;;;;;5.05;2.00;;;;;;;16.39;90.93;100655.88;6222946;22;20445;-76
2023/08/30 16:17:58;;;;;;;3.60;1.98;;;;;;;16.40;91.55;100654.66;6250104;22;20468;-81
2023/08/30 16:20:25;;;;;;;5.85;1.80;;;;;;;16.33;91.44;100658.53;6248055;22;20024;-77
2023/08/30 16:22:52;;;;;;;6.93;1.98;;;;;;;16.30;90.88;100656.81;6249149;22;20017;-77
2023/08/30 16:25:18;;;;;;;4.55;1.55;;;;;;;16.31;91.29;100647.53;6249027;22;20009;-77
2023/08/30 16:27:45;;;;;;;5.80;2.08;;;;;;;16.37;91.88;100652.94;6249337;22;20021;-78
2023/08/30 16:30:12;;;;;;;8.02;1.83;;;;;;;16.34;91.06;100655.38;6222214;22;20103;-77
2023/08/30 16:32:38;;;;;;;3.83;1.90;;;;;;;16.34;90.51;100655.38;6249454;22;20083;-77
2023/08/30 16:35:06;;;;;;;3.42;1.90;;;;;;;16.34;91.35;100657.34;6249539;22;20016;-77
2023/08/30 16:37:33;;;;;;;6.55;2.13;;;;;;;16.24;89.15;100662.16;6248486;22;20414;-77
2023/08/30 16:39:59;;;;;;;3.85;1.95;;;;;;;16.23;89.09;100660.69;6248731;22;20016;-77
2023/08/30 16:42:26;;;;;;;2.85;1.88;;;;;;;16.24;90.82;100659.47;6248918;22;20368;-77
2023/08/30 16:44:52;;;;;;;5.35;1.88;;;;;;;16.17;90.42;100664.56;6223191;22;20485;-77
2023/08/30 16:47:19;;;;;;;5.25;2.15;;;;;;;16.04;91.07;100664.22;6248852;22;20044;-76
2023/08/30 16:49:45;;;;;;;5.20;2.15;;;;;;;16.00;92.28;100670.53;6250026;22;20095;-77
2023/08/30 16:52:12;;;;;;;2.50;2.00;;;;;;;15.94;91.75;100671.75;6249236;22;20514;-76
2023/08/30 16:54:39;;;;;;;3.13;2.13;;;;;;;15.90;89.58;100671.97;6249781;22;20019;-77
2023/08/30 16:57:05;;;;;;;5.03;2.00;;;;;;;15.91;89.53;100668.06;6249949;22;20354;-77
2023/08/30 16:59:32;;;;;;;4.22;1.92;;;;;;;15.87;89.32;100666.81;6222673;22;20358;-79
2023/08/30 17:01:59;;;;;;;7.30;1.70;;;;;;;15.86;87.74;100665.34;6223190;22;20012;-77
2023/08/30 17:04:25;;;;;;;4.03;1.70;;;;;;;15.86;88.59;100660.69;6248690;22;20458;-77
2023/08/30 17:06:59;;;;;;;4.65;1.98;;;;;;;15.85;87.33;100666.53;6250098;22;20067;-77
2023/08/30 17:09:26;;;;;;;3.78;1.80;;;;;;;15.87;87.35;100664.13;6248620;22;20878;-77
2023/08/30 17:11:53;;;;;;;2.47;1.48;;;;;;;15.82;85.47;100672.88;6250072;22;20048;-78
2023/08/30 17:14:20;;;;;;;4.88;2.10;;;;;;;15.76;85.24;100664.03;6221755;22;20033;-77
2023/08/30 17:16:47;;;;;;;3.67;1.58;;;;;;;15.69;86.05;100665.19;6249910;22;20039;-80
2023/08/30 17:19:13;;;;;;;2.25;1.58;;;;;;;15.64;86.13;100668.56;6248945;22;20836;-77
2023/08/30 17:21:40;;;;;;;3.97;1.83;;;;;;;15.60;86.11;100668.03;6249445;22;20013;-79
2023/08/30 17:24:06;;;;;;;3.03;1.40;;;;;;;15.53;85.31;100673.84;6222686;22;20017;-77
2023/08/30 17:26:33;;;;;;;2.67;1.35;;;;;;;15.48;85.33;100679.88;6249523;22;20393;-77
2023/08/30 17:29:00;;;;;;;4.65;1.58;;;;;;;15.42;84.32;100679.81;6249551;22;20021;-77
2023/08/30 17:31:26;;;;;;;4.72;1.65;;;;;;;15.39;85.43;100688.81;6249122;22;20013;-78
2023/08/30 17:33:53;;;;;;;4.53;1.63;;;;;;;15.33;84.31;100685.34;6249344;22;20391;-80
2023/08/30 17:36:20;;;;;;;6.47;1.70;;;;;;;15.28;84.99;100678.72;6248897;22;20384;-76
2023/08/30 17:38:47;;;;;;;3.83;1.70;;;;;;;15.27;86.79;100687.22;6249457;22;20023;-77
2023/08/30 17:41:14;;;;;;;5.38;1.42;;;;;;;15.21;85.72;100689.13;6249533;22;20071;-78
2023/08/30 17:43:40;;;;;;;3.13;1.30;;;;;;;15.19;85.63;100694.25;6249451;22;20017;-78
2023/08/30 17:46:07;;;;;;;3.03;1.55;;;;;;;15.17;85.79;100696.66;6249351;22;20458;-77
2023/08/30 17:48:34;;;;;;;3.47;1.40;;;;;;;15.16;86.51;100698.59;6221985;22;20042;-78
2023/08/30 17:51:02;;;;;;;4.72;1.10;;;;;;;15.16;86.78;100700.53;6249572;22;20096;-77
2023/08/30 17:53:29;;;;;;;3.50;1.30;;;;;;;15.16;86.53;100713.94;6248930;22;20100;-76
2023/08/30 17:55:57;;;;;;;4.18;1.40;;;;;;;15.12;87.20;100702.69;6249540;22;20020;-76
2023/08/30 17:58:25;;;;;;;6.32;1.20;;;;;;;15.11;87.93;100714.63;6248819;22;20020;-77
2023/08/30 18:00:53;;;;;;;4.40;1.23;;;;;;;15.10;87.76;100719.25;6222853;22;20013;-77
2023/08/30 18:03:21;;;;;;;8.45;1.27;;;;;;;15.11;88.79;100704.63;6248340;22;20463;-77